sensor_id;sensor_type;location;lat;lon;timestamp;temperature;humidity
39925;DHT22;25592;49.986;11.618;2023-03-14T00:01:44;10.70;99.90
39925;DHT22;25592;49.986;11.618;2023-03-14T00:04:30;10.60;99.90
39925;DHT22;25592;49.986;11.618;2023-03-14T00:07:15;10.60;99.90
39925;DHT22;25592;49.986;11.618;2023-03-14T00:10:03;10.60;99.90
39925;DHT22;25592;49.986;11.618;2023-03-14T00:12:49;10.70;99.90
39925;DHT22;25592;49.986;11.618;2023-03-14T00:15:35;10.70;99.90
39925;DHT22;25592;49.986;11.618;2023-03-14T00:18:20;10.70;99.90
39925;DHT22;25592;49.986;11.618;2023-03-14T00:21:08;10.60;99.90
39925;DHT22;25592;49.986;11.618;2023-03-14T00:23:54;10.60;99.90
39925;DHT22;25592;49.986;11.618;2023-03-14T00:26:39;10.60;99.90
39925;DHT22;25592;49.986;11.618;2023-03-14T00:29:25;10.60;99.90
39925;DHT22;25592;49.986;11.618;2023-03-14T00:32:10;10.40;99.90
39925;DHT22;25592;49.986;11.618;2023-03-14T00:34:56;10.50;99.90
39925;DHT22;25592;49.986;11.618;2023-03-14T00:37:42;10.50;99.90
39925;DHT22;25592;49.986;11.618;2023-03-14T00:40:27;10.50;99.90
39925;DHT22;25592;49.986;11.618;2023-03-14T00:43:13;10.50;99.90
39925;DHT22;25592;49.986;11.618;2023-03-14T00:45:58;10.50;99.90
39925;DHT22;25592;49.986;11.618;2023-03-14T00:48:45;10.60;99.90
39925;DHT22;25592;49.986;11.618;2023-03-14T00:51:31;10.70;99.90
39925;DHT22;25592;49.986;11.618;2023-03-14T00:54:17;10.70;99.90
39925;DHT22;25592;49.986;11.618;2023-03-14T00:57:03;10.60;99.90
39925;DHT22;25592;49.986;11.618;2023-03-14T00:59:50;10.60;99.90
39925;DHT22;25592;49.986;11.618;2023-03-14T01:02:35;10.60;99.90
39925;DHT22;25592;49.986;11.618;2023-03-14T01:05:22;10.60;99.90
39925;DHT22;25592;49.986;11.618;2023-03-14T01:08:07;10.60;99.90
39925;DHT22;25592;49.986;11.618;2023-03-14T01:10:52;10.70;99.90
39925;DHT22;25592;49.986;11.618;2023-03-14T01:13:38;10.70;99.90
39925;DHT22;25592;49.986;11.618;2023-03-14T01:16:26;10.60;99.90
39925;DHT22;25592;49.986;11.618;2023-03-14T01:19:12;10.60;99.90
39925;DHT22;25592;49.986;11.618;2023-03-14T01:21:57;10.70;99.90
39925;DHT22;25592;49.986;11.618;2023-03-14T01:24:42;10.70;99.90
39925;DHT22;25592;49.986;11.618;2023-03-14T01:27:27;10.70;99.90
39925;DHT22;25592;49.986;11.618;2023-03-14T01:30:13;10.80;99.90
39925;DHT22;25592;49.986;11.618;2023-03-14T01:32:58;10.80;99.90
39925;DHT22;25592;49.986;11.618;2023-03-14T01:35:44;10.80;99.90
39925;DHT22;25592;49.986;11.618;2023-03-14T01:38:33;10.60;99.90
39925;DHT22;25592;49.986;11.618;2023-03-14T01:41:21;10.70;99.90
39925;DHT22;25592;49.986;11.618;2023-03-14T01:44:11;10.70;99.90
39925;DHT22;25592;49.986;11.618;2023-03-14T01:46:57;10.70;99.90
39925;DHT22;25592;49.986;11.618;2023-03-14T01:49:44;10.90;99.90
39925;DHT22;25592;49.986;11.618;2023-03-14T01:52:46;11.00;99.90
39925;DHT22;25592;49.986;11.618;2023-03-14T01:55:32;11.00;99.90
39925;DHT22;25592;49.986;11.618;2023-03-14T01:58:18;11.10;99.90
39925;DHT22;25592;49.986;11.618;2023-03-14T02:01:05;11.10;99.90
39925;DHT22;25592;49.986;11.618;2023-03-14T02:03:59;11.10;99.90
39925;DHT22;25592;49.986;11.618;2023-03-14T02:06:56;11.20;99.90
39925;DHT22;25592;49.986;11.618;2023-03-14T02:09:42;11.20;99.90
39925;DHT22;25592;49.986;11.618;2023-03-14T02:12:28;11.10;99.90
39925;DHT22;25592;49.986;11.618;2023-03-14T02:15:13;11.00;99.90
39925;DHT22;25592;49.986;11.618;2023-03-14T02:17:59;10.90;99.90
39925;DHT22;25592;49.986;11.618;2023-03-14T02:20:56;11.00;99.90
39925;DHT22;25592;49.986;11.618;2023-03-14T02:27:08;11.10;99.90
39925;DHT22;25592;49.986;11.618;2023-03-14T02:33:00;10.80;99.90
39925;DHT22;25592;49.986;11.618;2023-03-14T02:35:51;10.80;99.90
39925;DHT22;25592;49.986;11.618;2023-03-14T02:41:26;10.70;99.90
39925;DHT22;25592;49.986;11.618;2023-03-14T02:44:11;10.70;99.90
39925;DHT22;25592;49.986;11.618;2023-03-14T02:46:56;10.70;99.90
39925;DHT22;25592;49.986;11.618;2023-03-14T02:49:42;10.70;99.90
39925;DHT22;25592;49.986;11.618;2023-03-14T02:52:27;10.80;99.90
39925;DHT22;25592;49.986;11.618;2023-03-14T02:55:13;10.80;99.90
39925;DHT22;25592;49.986;11.618;2023-03-14T02:57:58;10.70;99.90
39925;DHT22;25592;49.986;11.618;2023-03-14T03:00:44;10.90;99.90
39925;DHT22;25592;49.986;11.618;2023-03-14T03:03:29;10.90;99.90
39925;DHT22;25592;49.986;11.618;2023-03-14T03:06:15;11.00;99.90
39925;DHT22;25592;49.986;11.618;2023-03-14T03:09:01;10.90;99.90
39925;DHT22;25592;49.986;11.618;2023-03-14T03:11:46;10.90;99.90
39925;DHT22;25592;49.986;11.618;2023-03-14T03:14:31;10.90;99.90
39925;DHT22;25592;49.986;11.618;2023-03-14T03:17:17;10.90;99.90
39925;DHT22;25592;49.986;11.618;2023-03-14T03:20:02;10.90;99.90
39925;DHT22;25592;49.986;11.618;2023-03-14T03:22:50;10.80;99.90
39925;DHT22;25592;49.986;11.618;2023-03-14T03:25:35;10.70;99.90
39925;DHT22;25592;49.986;11.618;2023-03-14T03:28:20;10.80;99.90
39925;DHT22;25592;49.986;11.618;2023-03-14T03:31:10;10.80;99.90
39925;DHT22;25592;49.986;11.618;2023-03-14T03:33:56;10.90;99.90
39925;DHT22;25592;49.986;11.618;2023-03-14T03:36:41;10.80;99.90
39925;DHT22;25592;49.986;11.618;2023-03-14T03:39:27;10.80;99.90
39925;DHT22;25592;49.986;11.618;2023-03-14T03:42:12;10.80;99.90
39925;DHT22;25592;49.986;11.618;2023-03-14T03:44:59;10.80;99.90
39925;DHT22;25592;49.986;11.618;2023-03-14T03:47:44;10.70;99.90
39925;DHT22;25592;49.986;11.618;2023-03-14T03:50:30;10.80;99.90
39925;DHT22;25592;49.986;11.618;2023-03-14T03:53:15;10.80;99.90
39925;DHT22;25592;49.986;11.618;2023-03-14T03:56:14;10.90;99.90
39925;DHT22;25592;49.986;11.618;2023-03-14T03:58:59;10.90;99.90
39925;DHT22;25592;49.986;11.618;2023-03-14T04:01:45;10.90;99.90
39925;DHT22;25592;49.986;11.618;2023-03-14T04:04:31;10.80;99.90
39925;DHT22;25592;49.986;11.618;2023-03-14T04:07:16;10.80;99.90
39925;DHT22;25592;49.986;11.618;2023-03-14T04:10:02;10.80;99.90
39925;DHT22;25592;49.986;11.618;2023-03-14T04:12:47;10.80;99.90
39925;DHT22;25592;49.986;11.618;2023-03-14T04:15:33;10.90;99.90
39925;DHT22;25592;49.986;11.618;2023-03-14T04:18:19;10.80;99.90
39925;DHT22;25592;49.986;11.618;2023-03-14T04:21:04;10.80;99.90
39925;DHT22;25592;49.986;11.618;2023-03-14T04:23:50;10.80;99.90
39925;DHT22;25592;49.986;11.618;2023-03-14T04:26:35;10.70;99.90
39925;DHT22;25592;49.986;11.618;2023-03-14T04:29:21;10.70;99.90
39925;DHT22;25592;49.986;11.618;2023-03-14T04:32:06;10.60;99.90
39925;DHT22;25592;49.986;11.618;2023-03-14T04:34:51;10.60;99.90
39925;DHT22;25592;49.986;11.618;2023-03-14T04:37:37;10.70;99.90
39925;DHT22;25592;49.986;11.618;2023-03-14T04:40:22;10.70;99.90
39925;DHT22;25592;49.986;11.618;2023-03-14T04:43:08;10.70;99.90
39925;DHT22;25592;49.986;11.618;2023-03-14T04:45:56;10.70;99.90
39925;DHT22;25592;49.986;11.618;2023-03-14T04:48:41;10.70;99.90
39925;DHT22;25592;49.986;11.618;2023-03-14T04:51:26;10.80;99.90
39925;DHT22;25592;49.986;11.618;2023-03-14T04:54:12;10.70;99.90
39925;DHT22;25592;49.986;11.618;2023-03-14T04:56:57;10.70;99.90
39925;DHT22;25592;49.986;11.618;2023-03-14T04:59:43;10.70;99.90
39925;DHT22;25592;49.986;11.618;2023-03-14T05:02:28;10.80;99.90
39925;DHT22;25592;49.986;11.618;2023-03-14T05:05:13;10.70;99.90
39925;DHT22;25592;49.986;11.618;2023-03-14T05:07:59;10.80;99.90
39925;DHT22;25592;49.986;11.618;2023-03-14T05:10:44;10.70;99.90
39925;DHT22;25592;49.986;11.618;2023-03-14T05:13:30;10.50;99.90
39925;DHT22;25592;49.986;11.618;2023-03-14T05:16:15;10.50;99.90
39925;DHT22;25592;49.986;11.618;2023-03-14T05:19:00;10.60;99.90
39925;DHT22;25592;49.986;11.618;2023-03-14T05:21:46;10.60;99.90
39925;DHT22;25592;49.986;11.618;2023-03-14T05:24:32;10.60;99.90
39925;DHT22;25592;49.986;11.618;2023-03-14T05:27:18;10.40;99.90
39925;DHT22;25592;49.986;11.618;2023-03-14T05:30:04;10.40;99.90
39925;DHT22;25592;49.986;11.618;2023-03-14T05:32:50;10.40;99.90
39925;DHT22;25592;49.986;11.618;2023-03-14T05:35:35;10.40;99.90
39925;DHT22;25592;49.986;11.618;2023-03-14T05:38:21;10.40;99.90
39925;DHT22;25592;49.986;11.618;2023-03-14T05:41:07;10.40;99.90
39925;DHT22;25592;49.986;11.618;2023-03-14T05:43:52;10.40;99.90
39925;DHT22;25592;49.986;11.618;2023-03-14T05:46:37;10.50;99.90
39925;DHT22;25592;49.986;11.618;2023-03-14T05:49:23;10.40;99.90
39925;DHT22;25592;49.986;11.618;2023-03-14T05:52:08;10.30;99.90
39925;DHT22;25592;49.986;11.618;2023-03-14T05:54:54;10.30;99.90
39925;DHT22;25592;49.986;11.618;2023-03-14T05:57:39;10.30;99.90
39925;DHT22;25592;49.986;11.618;2023-03-14T06:00:25;10.30;99.90
39925;DHT22;25592;49.986;11.618;2023-03-14T06:03:10;10.30;99.90
39925;DHT22;25592;49.986;11.618;2023-03-14T06:05:55;10.30;99.90
39925;DHT22;25592;49.986;11.618;2023-03-14T06:08:41;10.20;99.90
39925;DHT22;25592;49.986;11.618;2023-03-14T06:11:26;10.30;99.90
39925;DHT22;25592;49.986;11.618;2023-03-14T06:14:12;10.40;99.90
39925;DHT22;25592;49.986;11.618;2023-03-14T06:16:57;10.40;99.90
39925;DHT22;25592;49.986;11.618;2023-03-14T06:19:44;10.40;99.90
39925;DHT22;25592;49.986;11.618;2023-03-14T06:22:29;10.30;99.90
39925;DHT22;25592;49.986;11.618;2023-03-14T06:25:15;10.30;99.90
39925;DHT22;25592;49.986;11.618;2023-03-14T06:28:00;10.20;99.90
39925;DHT22;25592;49.986;11.618;2023-03-14T06:30:46;10.20;99.90
39925;DHT22;25592;49.986;11.618;2023-03-14T06:33:31;10.20;99.90
39925;DHT22;25592;49.986;11.618;2023-03-14T06:36:17;10.20;99.90
39925;DHT22;25592;49.986;11.618;2023-03-14T06:39:02;10.20;99.90
39925;DHT22;25592;49.986;11.618;2023-03-14T06:41:48;10.20;99.90
39925;DHT22;25592;49.986;11.618;2023-03-14T06:44:33;10.20;99.90
39925;DHT22;25592;49.986;11.618;2023-03-14T06:47:18;10.20;99.90
39925;DHT22;25592;49.986;11.618;2023-03-14T06:50:05;10.20;99.90
39925;DHT22;25592;49.986;11.618;2023-03-14T06:52:51;10.20;99.90
39925;DHT22;25592;49.986;11.618;2023-03-14T06:55:36;10.30;99.90
39925;DHT22;25592;49.986;11.618;2023-03-14T06:58:21;10.30;99.90
39925;DHT22;25592;49.986;11.618;2023-03-14T07:01:20;10.40;99.90
39925;DHT22;25592;49.986;11.618;2023-03-14T07:04:06;10.40;99.90
39925;DHT22;25592;49.986;11.618;2023-03-14T07:06:52;10.40;99.90
39925;DHT22;25592;49.986;11.618;2023-03-14T07:09:37;10.40;99.90
39925;DHT22;25592;49.986;11.618;2023-03-14T07:12:22;10.60;99.90
39925;DHT22;25592;49.986;11.618;2023-03-14T07:15:08;10.50;99.90
39925;DHT22;25592;49.986;11.618;2023-03-14T07:18:03;10.50;99.90
39925;DHT22;25592;49.986;11.618;2023-03-14T07:20:48;10.50;99.90
39925;DHT22;25592;49.986;11.618;2023-03-14T07:23:35;10.40;99.90
39925;DHT22;25592;49.986;11.618;2023-03-14T07:26:21;10.50;99.90
39925;DHT22;25592;49.986;11.618;2023-03-14T07:29:06;10.50;99.90
39925;DHT22;25592;49.986;11.618;2023-03-14T07:31:52;10.50;99.90
39925;DHT22;25592;49.986;11.618;2023-03-14T07:34:37;10.50;99.90
39925;DHT22;25592;49.986;11.618;2023-03-14T07:37:22;10.50;99.90
39925;DHT22;25592;49.986;11.618;2023-03-14T07:40:08;10.60;99.90
39925;DHT22;25592;49.986;11.618;2023-03-14T07:42:56;10.60;99.90
39925;DHT22;25592;49.986;11.618;2023-03-14T07:45:45;10.70;99.90
39925;DHT22;25592;49.986;11.618;2023-03-14T07:48:35;10.70;99.90
39925;DHT22;25592;49.986;11.618;2023-03-14T07:51:21;10.70;99.90
39925;DHT22;25592;49.986;11.618;2023-03-14T07:54:06;10.70;99.90
39925;DHT22;25592;49.986;11.618;2023-03-14T07:56:52;10.60;99.90
39925;DHT22;25592;49.986;11.618;2023-03-14T07:59:38;10.60;99.90
39925;DHT22;25592;49.986;11.618;2023-03-14T08:02:23;10.60;99.90
39925;DHT22;25592;49.986;11.618;2023-03-14T08:05:09;10.60;99.90
39925;DHT22;25592;49.986;11.618;2023-03-14T08:07:55;10.60;99.90
39925;DHT22;25592;49.986;11.618;2023-03-14T08:10:40;10.70;99.90
39925;DHT22;25592;49.986;11.618;2023-03-14T08:13:26;10.60;99.90
39925;DHT22;25592;49.986;11.618;2023-03-14T08:16:11;10.60;99.90
39925;DHT22;25592;49.986;11.618;2023-03-14T08:18:56;10.70;99.90
39925;DHT22;25592;49.986;11.618;2023-03-14T08:21:42;10.70;99.90
39925;DHT22;25592;49.986;11.618;2023-03-14T08:24:27;10.80;99.90
39925;DHT22;25592;49.986;11.618;2023-03-14T08:27:13;10.90;99.90
39925;DHT22;25592;49.986;11.618;2023-03-14T08:29:59;11.00;99.90
39925;DHT22;25592;49.986;11.618;2023-03-14T08:32:45;10.80;99.90
39925;DHT22;25592;49.986;11.618;2023-03-14T08:35:30;10.90;99.90
39925;DHT22;25592;49.986;11.618;2023-03-14T08:38:16;10.90;99.90
39925;DHT22;25592;49.986;11.618;2023-03-14T08:41:02;10.90;99.90
39925;DHT22;25592;49.986;11.618;2023-03-14T08:43:48;11.00;99.90
39925;DHT22;25592;49.986;11.618;2023-03-14T08:46:34;11.00;99.90
39925;DHT22;25592;49.986;11.618;2023-03-14T08:49:20;11.10;99.90
39925;DHT22;25592;49.986;11.618;2023-03-14T08:52:05;11.10;99.90
39925;DHT22;25592;49.986;11.618;2023-03-14T08:54:51;11.10;99.90
39925;DHT22;25592;49.986;11.618;2023-03-14T08:57:36;11.10;99.90
39925;DHT22;25592;49.986;11.618;2023-03-14T09:00:22;11.10;99.90
39925;DHT22;25592;49.986;11.618;2023-03-14T09:03:07;11.10;99.90
39925;DHT22;25592;49.986;11.618;2023-03-14T09:05:52;11.10;99.90
39925;DHT22;25592;49.986;11.618;2023-03-14T09:08:38;11.30;99.90
39925;DHT22;25592;49.986;11.618;2023-03-14T09:11:24;11.40;99.90
39925;DHT22;25592;49.986;11.618;2023-03-14T09:14:09;11.40;99.90
39925;DHT22;25592;49.986;11.618;2023-03-14T09:16:54;11.30;99.90
39925;DHT22;25592;49.986;11.618;2023-03-14T09:19:40;11.20;99.90
39925;DHT22;25592;49.986;11.618;2023-03-14T09:22:25;11.10;99.90
39925;DHT22;25592;49.986;11.618;2023-03-14T09:25:10;11.20;99.90
39925;DHT22;25592;49.986;11.618;2023-03-14T09:27:56;11.40;99.90
39925;DHT22;25592;49.986;11.618;2023-03-14T09:30:41;11.40;99.90
39925;DHT22;25592;49.986;11.618;2023-03-14T09:33:27;11.40;99.90
39925;DHT22;25592;49.986;11.618;2023-03-14T09:36:12;11.30;99.90
39925;DHT22;25592;49.986;11.618;2023-03-14T09:38:58;11.20;99.90
39925;DHT22;25592;49.986;11.618;2023-03-14T09:41:49;11.20;99.90
39925;DHT22;25592;49.986;11.618;2023-03-14T09:44:39;11.30;99.90
39925;DHT22;25592;49.986;11.618;2023-03-14T09:47:27;11.20;99.90
39925;DHT22;25592;49.986;11.618;2023-03-14T09:50:14;11.20;99.90
39925;DHT22;25592;49.986;11.618;2023-03-14T09:53:04;11.20;99.90
39925;DHT22;25592;49.986;11.618;2023-03-14T09:55:51;11.10;99.90
39925;DHT22;25592;49.986;11.618;2023-03-14T09:58:41;11.20;99.90
39925;DHT22;25592;49.986;11.618;2023-03-14T10:01:32;11.20;99.90
39925;DHT22;25592;49.986;11.618;2023-03-14T10:04:21;11.30;99.90
39925;DHT22;25592;49.986;11.618;2023-03-14T10:07:13;11.20;99.90
39925;DHT22;25592;49.986;11.618;2023-03-14T10:10:00;11.30;99.90
39925;DHT22;25592;49.986;11.618;2023-03-14T10:12:47;11.30;99.90
39925;DHT22;25592;49.986;11.618;2023-03-14T10:15:34;11.20;99.90
39925;DHT22;25592;49.986;11.618;2023-03-14T10:18:20;11.20;99.90
39925;DHT22;25592;49.986;11.618;2023-03-14T10:21:29;11.00;99.90
39925;DHT22;25592;49.986;11.618;2023-03-14T10:27:18;10.90;99.90
39925;DHT22;25592;49.986;11.618;2023-03-14T10:30:07;10.90;99.90
39925;DHT22;25592;49.986;11.618;2023-03-14T10:32:52;11.10;99.90
39925;DHT22;25592;49.986;11.618;2023-03-14T10:35:38;11.10;99.90
39925;DHT22;25592;49.986;11.618;2023-03-14T10:38:33;11.00;99.90
39925;DHT22;25592;49.986;11.618;2023-03-14T10:41:24;11.00;99.90
39925;DHT22;25592;49.986;11.618;2023-03-14T10:44:12;11.20;99.90
39925;DHT22;25592;49.986;11.618;2023-03-14T10:47:03;11.30;99.90
39925;DHT22;25592;49.986;11.618;2023-03-14T10:49:48;11.30;99.90
39925;DHT22;25592;49.986;11.618;2023-03-14T10:52:34;11.30;99.90
39925;DHT22;25592;49.986;11.618;2023-03-14T10:55:42;11.30;99.90
39925;DHT22;25592;49.986;11.618;2023-03-14T10:58:29;11.40;99.90
39925;DHT22;25592;49.986;11.618;2023-03-14T11:01:37;11.40;99.90
39925;DHT22;25592;49.986;11.618;2023-03-14T11:07:26;11.20;99.90
39925;DHT22;25592;49.986;11.618;2023-03-14T11:13:26;11.20;99.90
39925;DHT22;25592;49.986;11.618;2023-03-14T11:22:43;11.50;99.90
39925;DHT22;25592;49.986;11.618;2023-03-14T11:26:02;11.60;99.90
39925;DHT22;25592;49.986;11.618;2023-03-14T11:28:57;11.60;99.90
39925;DHT22;25592;49.986;11.618;2023-03-14T11:31:44;11.60;99.90
39925;DHT22;25592;49.986;11.618;2023-03-14T11:34:44;11.60;99.90
39925;DHT22;25592;49.986;11.618;2023-03-14T11:38:18;11.50;99.90
39925;DHT22;25592;49.986;11.618;2023-03-14T11:40:51;11.50;99.90
39925;DHT22;25592;49.986;11.618;2023-03-14T11:43:39;11.60;99.90
39925;DHT22;25592;49.986;11.618;2023-03-14T11:46:41;11.60;99.90
39925;DHT22;25592;49.986;11.618;2023-03-14T11:49:48;11.50;99.90
39925;DHT22;25592;49.986;11.618;2023-03-14T11:52:52;11.50;99.90
39925;DHT22;25592;49.986;11.618;2023-03-14T11:55:41;11.60;99.90
39925;DHT22;25592;49.986;11.618;2023-03-14T11:58:34;11.70;99.90
39925;DHT22;25592;49.986;11.618;2023-03-14T12:01:21;11.90;99.90
39925;DHT22;25592;49.986;11.618;2023-03-14T12:04:42;12.30;99.90
39925;DHT22;25592;49.986;11.618;2023-03-14T12:07:40;12.40;99.90
39925;DHT22;25592;49.986;11.618;2023-03-14T12:10:28;12.30;99.90
39925;DHT22;25592;49.986;11.618;2023-03-14T12:13:16;12.20;99.90
39925;DHT22;25592;49.986;11.618;2023-03-14T12:16:10;12.20;99.90
39925;DHT22;25592;49.986;11.618;2023-03-14T12:19:21;12.10;99.90
39925;DHT22;25592;49.986;11.618;2023-03-14T12:22:27;12.10;99.90
39925;DHT22;25592;49.986;11.618;2023-03-14T12:25:20;12.20;99.90
39925;DHT22;25592;49.986;11.618;2023-03-14T12:28:29;12.40;99.90
39925;DHT22;25592;49.986;11.618;2023-03-14T12:40:26;12.90;99.90
39925;DHT22;25592;49.986;11.618;2023-03-14T12:43:34;13.00;99.90
39925;DHT22;25592;49.986;11.618;2023-03-14T12:46:26;12.70;99.90
39925;DHT22;25592;49.986;11.618;2023-03-14T12:49:12;12.60;99.90
39925;DHT22;25592;49.986;11.618;2023-03-14T12:52:01;12.70;99.90
39925;DHT22;25592;49.986;11.618;2023-03-14T12:55:10;12.60;99.90
39925;DHT22;25592;49.986;11.618;2023-03-14T12:58:10;12.60;99.90
39925;DHT22;25592;49.986;11.618;2023-03-14T13:01:02;12.50;99.90
39925;DHT22;25592;49.986;11.618;2023-03-14T13:04:04;12.60;99.90
39925;DHT22;25592;49.986;11.618;2023-03-14T13:06:53;12.60;99.90
39925;DHT22;25592;49.986;11.618;2023-03-14T13:13:02;12.50;99.90
39925;DHT22;25592;49.986;11.618;2023-03-14T13:15:49;12.20;99.90
39925;DHT22;25592;49.986;11.618;2023-03-14T13:18:41;12.20;99.90
39925;DHT22;25592;49.986;11.618;2023-03-14T13:21:27;12.10;99.90
39925;DHT22;25592;49.986;11.618;2023-03-14T13:24:26;12.10;99.90
39925;DHT22;25592;49.986;11.618;2023-03-14T13:27:19;12.30;99.90
39925;DHT22;25592;49.986;11.618;2023-03-14T13:30:20;12.40;99.90
39925;DHT22;25592;49.986;11.618;2023-03-14T13:33:06;12.40;99.90
39925;DHT22;25592;49.986;11.618;2023-03-14T13:36:01;12.40;99.90
39925;DHT22;25592;49.986;11.618;2023-03-14T13:38:56;12.40;99.90
39925;DHT22;25592;49.986;11.618;2023-03-14T13:41:42;12.30;99.90
39925;DHT22;25592;49.986;11.618;2023-03-14T13:44:37;12.00;99.90
39925;DHT22;25592;49.986;11.618;2023-03-14T13:47:25;11.90;99.90
39925;DHT22;25592;49.986;11.618;2023-03-14T13:50:17;11.70;99.90
39925;DHT22;25592;49.986;11.618;2023-03-14T13:53:03;11.60;99.90
39925;DHT22;25592;49.986;11.618;2023-03-14T13:55:49;11.60;99.90
39925;DHT22;25592;49.986;11.618;2023-03-14T13:58:37;11.60;99.90
39925;DHT22;25592;49.986;11.618;2023-03-14T14:01:30;11.40;99.90
39925;DHT22;25592;49.986;11.618;2023-03-14T14:04:19;11.30;99.90
39925;DHT22;25592;49.986;11.618;2023-03-14T14:07:09;11.20;99.90
39925;DHT22;25592;49.986;11.618;2023-03-14T14:09:58;11.20;99.90
39925;DHT22;25592;49.986;11.618;2023-03-14T14:13:00;11.00;99.90
39925;DHT22;25592;49.986;11.618;2023-03-14T14:15:48;10.80;99.90
39925;DHT22;25592;49.986;11.618;2023-03-14T14:18:35;10.70;99.90
39925;DHT22;25592;49.986;11.618;2023-03-14T14:21:21;10.80;99.90
39925;DHT22;25592;49.986;11.618;2023-03-14T14:24:10;10.60;99.90
39925;DHT22;25592;49.986;11.618;2023-03-14T14:27:08;10.80;99.90
39925;DHT22;25592;49.986;11.618;2023-03-14T14:32:51;10.60;99.90
39925;DHT22;25592;49.986;11.618;2023-03-14T14:35:37;10.60;99.90
39925;DHT22;25592;49.986;11.618;2023-03-14T14:38:22;10.60;99.90
39925;DHT22;25592;49.986;11.618;2023-03-14T14:41:11;10.70;99.90
39925;DHT22;25592;49.986;11.618;2023-03-14T14:43:57;10.60;99.90
39925;DHT22;25592;49.986;11.618;2023-03-14T14:46:42;10.60;99.90
39925;DHT22;25592;49.986;11.618;2023-03-14T14:49:30;10.60;99.90
39925;DHT22;25592;49.986;11.618;2023-03-14T14:52:18;10.60;99.90
39925;DHT22;25592;49.986;11.618;2023-03-14T14:55:12;10.60;99.90
39925;DHT22;25592;49.986;11.618;2023-03-14T14:58:24;10.70;99.90
39925;DHT22;25592;49.986;11.618;2023-03-14T15:01:22;10.60;99.90
39925;DHT22;25592;49.986;11.618;2023-03-14T15:04:14;10.60;99.90
39925;DHT22;25592;49.986;11.618;2023-03-14T15:07:00;10.30;99.90
39925;DHT22;25592;49.986;11.618;2023-03-14T15:09:45;10.30;99.90
39925;DHT22;25592;49.986;11.618;2023-03-14T15:12:30;10.20;99.90
39925;DHT22;25592;49.986;11.618;2023-03-14T15:15:17;10.00;99.90
39925;DHT22;25592;49.986;11.618;2023-03-14T15:18:02;9.90;99.90
39925;DHT22;25592;49.986;11.618;2023-03-14T15:20:48;9.80;99.90
39925;DHT22;25592;49.986;11.618;2023-03-14T15:23:33;9.60;99.90
39925;DHT22;25592;49.986;11.618;2023-03-14T15:26:21;9.60;99.90
39925;DHT22;25592;49.986;11.618;2023-03-14T15:29:08;9.60;99.90
39925;DHT22;25592;49.986;11.618;2023-03-14T15:31:57;9.50;99.90
39925;DHT22;25592;49.986;11.618;2023-03-14T15:34:42;9.50;99.90
39925;DHT22;25592;49.986;11.618;2023-03-14T15:37:27;9.40;99.90
39925;DHT22;25592;49.986;11.618;2023-03-14T15:40:13;9.20;99.90
39925;DHT22;25592;49.986;11.618;2023-03-14T15:43:00;9.20;99.90
39925;DHT22;25592;49.986;11.618;2023-03-14T15:45:46;9.10;99.90
39925;DHT22;25592;49.986;11.618;2023-03-14T15:48:32;9.10;99.90
39925;DHT22;25592;49.986;11.618;2023-03-14T15:51:17;9.00;99.90
39925;DHT22;25592;49.986;11.618;2023-03-14T15:54:03;9.00;99.90
39925;DHT22;25592;49.986;11.618;2023-03-14T15:56:48;9.00;99.90
39925;DHT22;25592;49.986;11.618;2023-03-14T15:59:33;9.00;99.90
39925;DHT22;25592;49.986;11.618;2023-03-14T16:02:19;9.00;99.90
39925;DHT22;25592;49.986;11.618;2023-03-14T16:05:04;9.00;99.90
39925;DHT22;25592;49.986;11.618;2023-03-14T16:07:50;8.90;99.90
39925;DHT22;25592;49.986;11.618;2023-03-14T16:10:35;8.90;99.90
39925;DHT22;25592;49.986;11.618;2023-03-14T16:13:21;8.80;99.90
39925;DHT22;25592;49.986;11.618;2023-03-14T16:16:07;8.90;99.90
39925;DHT22;25592;49.986;11.618;2023-03-14T16:18:52;8.80;99.90
39925;DHT22;25592;49.986;11.618;2023-03-14T16:21:38;8.70;99.90
39925;DHT22;25592;49.986;11.618;2023-03-14T16:24:23;8.60;99.90
39925;DHT22;25592;49.986;11.618;2023-03-14T16:27:10;8.40;99.90
39925;DHT22;25592;49.986;11.618;2023-03-14T16:29:56;8.40;99.90
39925;DHT22;25592;49.986;11.618;2023-03-14T16:32:45;8.40;99.90
39925;DHT22;25592;49.986;11.618;2023-03-14T16:35:31;8.60;99.90
39925;DHT22;25592;49.986;11.618;2023-03-14T16:38:16;8.70;99.90
39925;DHT22;25592;49.986;11.618;2023-03-14T16:41:04;8.70;99.90
39925;DHT22;25592;49.986;11.618;2023-03-14T16:43:50;8.70;99.90
39925;DHT22;25592;49.986;11.618;2023-03-14T16:46:37;8.80;99.90
39925;DHT22;25592;49.986;11.618;2023-03-14T16:49:23;8.80;99.90
39925;DHT22;25592;49.986;11.618;2023-03-14T16:52:09;9.00;99.90
39925;DHT22;25592;49.986;11.618;2023-03-14T16:54:54;8.90;99.90
39925;DHT22;25592;49.986;11.618;2023-03-14T16:57:39;8.70;99.90
39925;DHT22;25592;49.986;11.618;2023-03-14T17:00:25;8.60;99.90
39925;DHT22;25592;49.986;11.618;2023-03-14T17:03:10;8.30;99.90
39925;DHT22;25592;49.986;11.618;2023-03-14T17:05:56;7.30;99.90
39925;DHT22;25592;49.986;11.618;2023-03-14T17:08:41;7.10;99.90
39925;DHT22;25592;49.986;11.618;2023-03-14T17:11:27;6.90;99.90
39925;DHT22;25592;49.986;11.618;2023-03-14T17:14:12;6.70;99.90
39925;DHT22;25592;49.986;11.618;2023-03-14T17:16:57;6.70;99.90
39925;DHT22;25592;49.986;11.618;2023-03-14T17:19:44;6.60;99.90
39925;DHT22;25592;49.986;11.618;2023-03-14T17:22:30;6.70;99.90
39925;DHT22;25592;49.986;11.618;2023-03-14T17:25:17;6.80;99.90
39925;DHT22;25592;49.986;11.618;2023-03-14T17:28:04;7.00;99.90
39925;DHT22;25592;49.986;11.618;2023-03-14T17:30:49;7.20;99.90
39925;DHT22;25592;49.986;11.618;2023-03-14T17:33:35;7.50;99.90
39925;DHT22;25592;49.986;11.618;2023-03-14T17:36:21;7.70;99.90
39925;DHT22;25592;49.986;11.618;2023-03-14T17:39:12;7.90;99.90
39925;DHT22;25592;49.986;11.618;2023-03-14T17:41:58;8.10;99.90
39925;DHT22;25592;49.986;11.618;2023-03-14T17:44:43;8.10;99.90
39925;DHT22;25592;49.986;11.618;2023-03-14T17:47:30;8.30;99.90
39925;DHT22;25592;49.986;11.618;2023-03-14T17:50:15;8.30;99.90
39925;DHT22;25592;49.986;11.618;2023-03-14T17:53:01;8.30;99.90
39925;DHT22;25592;49.986;11.618;2023-03-14T17:55:47;8.20;99.90
39925;DHT22;25592;49.986;11.618;2023-03-14T17:58:34;8.10;99.90
39925;DHT22;25592;49.986;11.618;2023-03-14T18:01:21;8.10;99.90
39925;DHT22;25592;49.986;11.618;2023-03-14T18:04:07;8.10;99.90
39925;DHT22;25592;49.986;11.618;2023-03-14T18:06:53;8.00;99.90